YKJ weather

Key Lake Airport
Key Lake, Saskatchewan, Canada

Public forecast

Using degrees Celsius for public forecast. Weather courtesy of forecast.io.

Current aviation weather report (METAR) for Key Lake Airport

Retrieved 2020/06/04 11:00 UTC (1 hour ago):

CYKJ 041100Z AUTO 07005KT 9SM BKN055 BKN091 06/05 A2979 RMK SLP104

Aviation forecast (TAF) for Key Lake Airport

Retrieved 2020/06/04 10:42 UTC (2 hours ago):

TAF CYKJ 040938Z 0410/0422 06008KT P6SM -SHRA FEW040 OVC060 TEMPO 0410/0414 5SM -RA BR OVC040 FM041400 05012KT P6SM BKN050 TEMPO 0414/0422 SCT050 RMK FCST BASED ON AUTO OBS NXT FCST BY 041300Z